Terminal Aerodrome Forecast
Issued by NWS Cleveland, OH

Home | Current Version | Previous Version | Graphics & Text | Print | Product List | Glossary On
Versions: 1 2 3 4 5 6 7 8 9 10 11 12 13 14 15 16 17 18 19 20 21 22 23 24 25 26 27 28
012
FTUS41 KCLE 282320
TAFCLE
TAF
KCLE 282320Z 2900/3006 01008KT P6SM SCT050 BKN200
     FM290200 04003KT P6SM BKN200
      TEMPO 2909/2913 5SM BR
     FM291500 01005KT P6SM SCT045 BKN200
     FM291800 03010KT P6SM SCT045 BKN200
      TEMPO 2918/2922 BKN045
     FM300000 03007KT P6SM BKN250=

USA.gov is the U.S. government's official web portal to all federal, state and local government web resources and services.